sensor_id;sensor_type;location;lat;lon;timestamp;pressure;altitude;pressure_sealevel;temperature;humidity
55490;BME280;44029;52.956;4.772;2023-02-16T00:01:20;102343.59;;;8.04;100.00
55490;BME280;44029;52.956;4.772;2023-02-16T00:03:45;102343.00;;;7.87;100.00
55490;BME280;44029;52.956;4.772;2023-02-16T00:06:11;102337.38;;;7.89;100.00
55490;BME280;44029;52.956;4.772;2023-02-16T00:08:43;102342.69;;;7.97;100.00
55490;BME280;44029;52.956;4.772;2023-02-16T00:14:07;102332.19;;;8.22;100.00
55490;BME280;44029;52.956;4.772;2023-02-16T00:16:33;102336.94;;;8.13;100.00
55490;BME280;44029;52.956;4.772;2023-02-16T00:18:59;102321.81;;;8.11;100.00
55490;BME280;44029;52.956;4.772;2023-02-16T00:21:24;102323.00;;;8.02;100.00
55490;BME280;44029;52.956;4.772;2023-02-16T00:23:50;102330.59;;;8.06;100.00
55490;BME280;44029;52.956;4.772;2023-02-16T00:26:19;102335.13;;;8.21;100.00
55490;BME280;44029;52.956;4.772;2023-02-16T00:28:45;102335.22;;;8.06;100.00
55490;BME280;44029;52.956;4.772;2023-02-16T00:31:16;102318.09;;;8.19;100.00
55490;BME280;44029;52.956;4.772;2023-02-16T00:33:42;102319.81;;;7.98;100.00
55490;BME280;44029;52.956;4.772;2023-02-16T00:36:08;102313.09;;;8.01;100.00
55490;BME280;44029;52.956;4.772;2023-02-16T00:38:33;102313.75;;;8.03;100.00
55490;BME280;44029;52.956;4.772;2023-02-16T00:40:58;102298.53;;;7.87;100.00
55490;BME280;44029;52.956;4.772;2023-02-16T00:43:26;102308.28;;;8.03;100.00
55490;BME280;44029;52.956;4.772;2023-02-16T00:45:53;102301.28;;;7.93;100.00
55490;BME280;44029;52.956;4.772;2023-02-16T00:48:20;102294.81;;;7.94;100.00
55490;BME280;44029;52.956;4.772;2023-02-16T00:50:46;102296.81;;;7.86;100.00
55490;BME280;44029;52.956;4.772;2023-02-16T00:53:11;102300.16;;;7.81;100.00
55490;BME280;44029;52.956;4.772;2023-02-16T00:55:38;102301.75;;;7.97;100.00
55490;BME280;44029;52.956;4.772;2023-02-16T00:58:23;102309.34;;;8.02;100.00
55490;BME280;44029;52.956;4.772;2023-02-16T01:00:54;102315.94;;;8.14;100.00
55490;BME280;44029;52.956;4.772;2023-02-16T01:03:26;102307.72;;;8.07;100.00
55490;BME280;44029;52.956;4.772;2023-02-16T01:05:52;102312.72;;;8.04;100.00
55490;BME280;44029;52.956;4.772;2023-02-16T01:08:37;102311.91;;;8.03;100.00
55490;BME280;44029;52.956;4.772;2023-02-16T01:11:22;102304.81;;;8.09;100.00
55490;BME280;44029;52.956;4.772;2023-02-16T01:13:49;102298.34;;;8.17;100.00
55490;BME280;44029;52.956;4.772;2023-02-16T01:16:32;102293.88;;;8.37;100.00
55490;BME280;44029;52.956;4.772;2023-02-16T01:18:59;102302.41;;;8.27;100.00
55490;BME280;44029;52.956;4.772;2023-02-16T01:21:24;102310.66;;;8.34;100.00
55490;BME280;44029;52.956;4.772;2023-02-16T01:23:50;102295.91;;;8.28;100.00
55490;BME280;44029;52.956;4.772;2023-02-16T01:26:17;102295.81;;;8.43;100.00
55490;BME280;44029;52.956;4.772;2023-02-16T01:28:44;102296.41;;;8.39;100.00
55490;BME280;44029;52.956;4.772;2023-02-16T01:31:10;102298.59;;;8.50;100.00
55490;BME280;44029;52.956;4.772;2023-02-16T01:33:36;102295.00;;;8.43;100.00
55490;BME280;44029;52.956;4.772;2023-02-16T01:36:03;102299.38;;;8.44;100.00
55490;BME280;44029;52.956;4.772;2023-02-16T01:38:29;102299.84;;;8.47;100.00
55490;BME280;44029;52.956;4.772;2023-02-16T01:43:52;102279.50;;;8.50;100.00
55490;BME280;44029;52.956;4.772;2023-02-16T01:49:15;102276.13;;;8.48;100.00
55490;BME280;44029;52.956;4.772;2023-02-16T01:51:50;102271.09;;;8.51;100.00
55490;BME280;44029;52.956;4.772;2023-02-16T01:57:00;102272.19;;;8.57;100.00
55490;BME280;44029;52.956;4.772;2023-02-16T02:02:15;102259.16;;;8.59;100.00
55490;BME280;44029;52.956;4.772;2023-02-16T02:04:53;102263.81;;;8.65;100.00
55490;BME280;44029;52.956;4.772;2023-02-16T02:08:01;102260.69;;;8.75;100.00
55490;BME280;44029;52.956;4.772;2023-02-16T02:16:06;102261.00;;;8.52;100.00
55490;BME280;44029;52.956;4.772;2023-02-16T02:18:32;102253.66;;;8.52;100.00
55490;BME280;44029;52.956;4.772;2023-02-16T02:27:09;102259.63;;;8.69;100.00
55490;BME280;44029;52.956;4.772;2023-02-16T02:29:46;102263.88;;;8.79;100.00
55490;BME280;44029;52.956;4.772;2023-02-16T02:43:52;102245.75;;;8.71;100.00
55490;BME280;44029;52.956;4.772;2023-02-16T02:46:25;102242.59;;;8.67;100.00
55490;BME280;44029;52.956;4.772;2023-02-16T02:48:52;102246.09;;;8.55;100.00
55490;BME280;44029;52.956;4.772;2023-02-16T02:51:17;102242.53;;;8.54;100.00
55490;BME280;44029;52.956;4.772;2023-02-16T02:54:14;102244.09;;;8.70;100.00
55490;BME280;44029;52.956;4.772;2023-02-16T02:57:20;102241.56;;;8.75;100.00
55490;BME280;44029;52.956;4.772;2023-02-16T03:00:29;102234.88;;;8.84;100.00
55490;BME280;44029;52.956;4.772;2023-02-16T03:03:21;102233.66;;;8.87;100.00
55490;BME280;44029;52.956;4.772;2023-02-16T03:05:57;102238.03;;;8.81;100.00
55490;BME280;44029;52.956;4.772;2023-02-16T03:08:28;102246.69;;;8.85;100.00
55490;BME280;44029;52.956;4.772;2023-02-16T03:11:37;102240.38;;;8.91;100.00
55490;BME280;44029;52.956;4.772;2023-02-16T03:14:13;102237.16;;;8.81;100.00
55490;BME280;44029;52.956;4.772;2023-02-16T03:16:44;102235.91;;;8.70;100.00
55490;BME280;44029;52.956;4.772;2023-02-16T03:19:12;102236.88;;;8.62;100.00
55490;BME280;44029;52.956;4.772;2023-02-16T03:21:58;102242.78;;;8.59;100.00
55490;BME280;44029;52.956;4.772;2023-02-16T03:24:43;102235.41;;;8.60;100.00
55490;BME280;44029;52.956;4.772;2023-02-16T03:27:31;102234.16;;;8.62;100.00
55490;BME280;44029;52.956;4.772;2023-02-16T03:30:17;102236.88;;;8.56;100.00
55490;BME280;44029;52.956;4.772;2023-02-16T03:32:44;102233.06;;;8.57;100.00
55490;BME280;44029;52.956;4.772;2023-02-16T03:35:10;102241.88;;;8.52;100.00
55490;BME280;44029;52.956;4.772;2023-02-16T03:37:37;102237.25;;;8.52;100.00
55490;BME280;44029;52.956;4.772;2023-02-16T03:40:08;102240.69;;;8.61;100.00
55490;BME280;44029;52.956;4.772;2023-02-16T03:42:54;102241.75;;;8.67;100.00
55490;BME280;44029;52.956;4.772;2023-02-16T03:45:21;102247.16;;;8.60;100.00
55490;BME280;44029;52.956;4.772;2023-02-16T03:47:47;102248.63;;;8.56;100.00
55490;BME280;44029;52.956;4.772;2023-02-16T03:50:13;102245.06;;;8.56;100.00
55490;BME280;44029;52.956;4.772;2023-02-16T03:52:38;102250.91;;;8.52;100.00
55490;BME280;44029;52.956;4.772;2023-02-16T03:55:03;102253.84;;;8.51;100.00
55490;BME280;44029;52.956;4.772;2023-02-16T03:57:29;102248.16;;;8.46;100.00
55490;BME280;44029;52.956;4.772;2023-02-16T03:59:54;102246.06;;;8.48;100.00
55490;BME280;44029;52.956;4.772;2023-02-16T04:02:20;102254.78;;;8.65;100.00
55490;BME280;44029;52.956;4.772;2023-02-16T04:04:46;102252.19;;;8.57;100.00
55490;BME280;44029;52.956;4.772;2023-02-16T04:07:11;102260.47;;;8.70;100.00
55490;BME280;44029;52.956;4.772;2023-02-16T04:09:36;102255.59;;;8.65;100.00
55490;BME280;44029;52.956;4.772;2023-02-16T04:12:02;102256.88;;;8.63;100.00
55490;BME280;44029;52.956;4.772;2023-02-16T04:14:46;102242.56;;;8.61;100.00
55490;BME280;44029;52.956;4.772;2023-02-16T04:17:11;102243.38;;;8.55;100.00
55490;BME280;44029;52.956;4.772;2023-02-16T04:19:36;102246.34;;;8.60;100.00
55490;BME280;44029;52.956;4.772;2023-02-16T04:22:02;102244.44;;;8.54;100.00
55490;BME280;44029;52.956;4.772;2023-02-16T04:24:27;102249.75;;;8.68;100.00
55490;BME280;44029;52.956;4.772;2023-02-16T04:26:52;102238.53;;;8.57;100.00
55490;BME280;44029;52.956;4.772;2023-02-16T04:29:18;102241.44;;;8.48;100.00
55490;BME280;44029;52.956;4.772;2023-02-16T04:31:43;102251.47;;;8.41;100.00
55490;BME280;44029;52.956;4.772;2023-02-16T04:34:08;102253.00;;;8.50;100.00
55490;BME280;44029;52.956;4.772;2023-02-16T04:36:34;102248.81;;;8.48;100.00
55490;BME280;44029;52.956;4.772;2023-02-16T04:38:59;102254.81;;;8.37;100.00
55490;BME280;44029;52.956;4.772;2023-02-16T04:41:24;102255.63;;;8.37;100.00
55490;BME280;44029;52.956;4.772;2023-02-16T04:43:51;102251.84;;;8.38;100.00
55490;BME280;44029;52.956;4.772;2023-02-16T04:46:16;102249.53;;;8.35;100.00
55490;BME280;44029;52.956;4.772;2023-02-16T04:48:43;102253.00;;;8.50;100.00
55490;BME280;44029;52.956;4.772;2023-02-16T04:51:08;102248.81;;;8.48;100.00
55490;BME280;44029;52.956;4.772;2023-02-16T04:53:34;102253.63;;;8.46;100.00
55490;BME280;44029;52.956;4.772;2023-02-16T04:55:59;102250.09;;;8.52;100.00
55490;BME280;44029;52.956;4.772;2023-02-16T04:58:24;102253.41;;;8.47;100.00
55490;BME280;44029;52.956;4.772;2023-02-16T05:00:50;102255.09;;;8.48;100.00
55490;BME280;44029;52.956;4.772;2023-02-16T05:03:15;102253.22;;;8.49;100.00
55490;BME280;44029;52.956;4.772;2023-02-16T05:05:40;102247.72;;;8.42;100.00
55490;BME280;44029;52.956;4.772;2023-02-16T05:08:06;102247.25;;;8.39;100.00
55490;BME280;44029;52.956;4.772;2023-02-16T05:10:31;102249.78;;;8.40;100.00
55490;BME280;44029;52.956;4.772;2023-02-16T05:12:57;102249.00;;;8.46;100.00
55490;BME280;44029;52.956;4.772;2023-02-16T05:15:41;102247.16;;;8.54;100.00
55490;BME280;44029;52.956;4.772;2023-02-16T05:18:06;102242.09;;;8.50;100.00
55490;BME280;44029;52.956;4.772;2023-02-16T05:20:32;102237.72;;;8.56;100.00
55490;BME280;44029;52.956;4.772;2023-02-16T05:23:16;102236.00;;;8.48;100.00
55490;BME280;44029;52.956;4.772;2023-02-16T05:25:41;102237.63;;;8.43;100.00
55490;BME280;44029;52.956;4.772;2023-02-16T05:28:07;102233.69;;;8.52;100.00
55490;BME280;44029;52.956;4.772;2023-02-16T05:30:32;102246.97;;;8.55;100.00
55490;BME280;44029;52.956;4.772;2023-02-16T05:32:57;102252.00;;;8.58;100.00
55490;BME280;44029;52.956;4.772;2023-02-16T05:35:23;102251.16;;;8.58;100.00
55490;BME280;44029;52.956;4.772;2023-02-16T05:37:48;102262.97;;;8.65;100.00
55490;BME280;44029;52.956;4.772;2023-02-16T05:40:13;102247.34;;;8.52;100.00
55490;BME280;44029;52.956;4.772;2023-02-16T05:42:39;102253.69;;;8.59;100.00
55490;BME280;44029;52.956;4.772;2023-02-16T05:45:05;102251.41;;;8.69;100.00
55490;BME280;44029;52.956;4.772;2023-02-16T05:47:30;102252.00;;;8.58;100.00
55490;BME280;44029;52.956;4.772;2023-02-16T05:49:55;102245.53;;;8.66;100.00
55490;BME280;44029;52.956;4.772;2023-02-16T05:52:21;102249.31;;;8.71;100.00
55490;BME280;44029;52.956;4.772;2023-02-16T05:54:46;102250.00;;;8.74;100.00
55490;BME280;44029;52.956;4.772;2023-02-16T05:57:12;102252.47;;;8.68;100.00
55490;BME280;44029;52.956;4.772;2023-02-16T05:59:37;102257.53;;;8.71;100.00
55490;BME280;44029;52.956;4.772;2023-02-16T06:02:02;102248.28;;;8.73;100.00
55490;BME280;44029;52.956;4.772;2023-02-16T06:04:28;102253.56;;;8.81;100.00
55490;BME280;44029;52.956;4.772;2023-02-16T06:06:54;102249.81;;;8.82;100.00
55490;BME280;44029;52.956;4.772;2023-02-16T06:09:19;102248.78;;;8.83;100.00
55490;BME280;44029;52.956;4.772;2023-02-16T06:11:45;102247.06;;;8.82;100.00
55490;BME280;44029;52.956;4.772;2023-02-16T06:14:18;102253.84;;;8.93;100.00
55490;BME280;44029;52.956;4.772;2023-02-16T06:16:46;102250.84;;;8.81;100.00
55490;BME280;44029;52.956;4.772;2023-02-16T06:19:13;102257.81;;;8.90;100.00
55490;BME280;44029;52.956;4.772;2023-02-16T06:21:39;102262.53;;;8.68;100.00
55490;BME280;44029;52.956;4.772;2023-02-16T06:24:07;102274.59;;;8.74;100.00
55490;BME280;44029;52.956;4.772;2023-02-16T06:26:33;102271.84;;;8.74;100.00
55490;BME280;44029;52.956;4.772;2023-02-16T06:28:58;102279.81;;;8.68;100.00
55490;BME280;44029;52.956;4.772;2023-02-16T06:31:24;102281.53;;;8.76;100.00
55490;BME280;44029;52.956;4.772;2023-02-16T06:33:50;102283.41;;;8.76;100.00
55490;BME280;44029;52.956;4.772;2023-02-16T06:36:16;102283.63;;;8.74;100.00
55490;BME280;44029;52.956;4.772;2023-02-16T06:38:42;102281.06;;;8.73;100.00
55490;BME280;44029;52.956;4.772;2023-02-16T06:41:08;102289.47;;;8.71;100.00
55490;BME280;44029;52.956;4.772;2023-02-16T06:43:34;102286.97;;;8.76;100.00
55490;BME280;44029;52.956;4.772;2023-02-16T06:45:59;102289.53;;;8.78;100.00
55490;BME280;44029;52.956;4.772;2023-02-16T06:48:24;102283.38;;;8.69;100.00
55490;BME280;44029;52.956;4.772;2023-02-16T06:50:50;102283.41;;;8.76;100.00
55490;BME280;44029;52.956;4.772;2023-02-16T06:53:16;102285.28;;;8.68;100.00
55490;BME280;44029;52.956;4.772;2023-02-16T06:55:41;102285.72;;;8.72;100.00
55490;BME280;44029;52.956;4.772;2023-02-16T06:58:07;102298.09;;;8.75;100.00
55490;BME280;44029;52.956;4.772;2023-02-16T07:00:33;102292.06;;;8.86;100.00
55490;BME280;44029;52.956;4.772;2023-02-16T07:02:58;102297.66;;;8.71;100.00
55490;BME280;44029;52.956;4.772;2023-02-16T07:05:24;102291.81;;;8.81;100.00
55490;BME280;44029;52.956;4.772;2023-02-16T07:07:50;102297.09;;;8.82;100.00
55490;BME280;44029;52.956;4.772;2023-02-16T07:10:15;102292.41;;;8.69;100.00
55490;BME280;44029;52.956;4.772;2023-02-16T07:12:41;102293.53;;;8.82;100.00
55490;BME280;44029;52.956;4.772;2023-02-16T07:15:07;102289.53;;;8.78;100.00
55490;BME280;44029;52.956;4.772;2023-02-16T07:17:33;102290.28;;;8.65;100.00
55490;BME280;44029;52.956;4.772;2023-02-16T07:19:58;102294.25;;;8.62;100.00
55490;BME280;44029;52.956;4.772;2023-02-16T07:22:24;102301.03;;;8.66;100.00
55490;BME280;44029;52.956;4.772;2023-02-16T07:24:49;102311.25;;;8.93;100.00
55490;BME280;44029;52.956;4.772;2023-02-16T07:27:14;102311.38;;;8.78;100.00
55490;BME280;44029;52.956;4.772;2023-02-16T07:29:40;102309.28;;;8.80;100.00
55490;BME280;44029;52.956;4.772;2023-02-16T07:32:05;102314.25;;;8.63;100.00
55490;BME280;44029;52.956;4.772;2023-02-16T07:34:31;102316.66;;;8.79;100.00
55490;BME280;44029;52.956;4.772;2023-02-16T07:36:56;102321.50;;;8.84;100.00
55490;BME280;44029;52.956;4.772;2023-02-16T07:39:22;102312.59;;;8.75;100.00
55490;BME280;44029;52.956;4.772;2023-02-16T07:41:47;102319.38;;;8.79;100.00
55490;BME280;44029;52.956;4.772;2023-02-16T07:44:13;102320.22;;;8.86;100.00
55490;BME280;44029;52.956;4.772;2023-02-16T07:46:38;102317.94;;;8.90;100.00
55490;BME280;44029;52.956;4.772;2023-02-16T07:49:03;102321.28;;;8.85;100.00
55490;BME280;44029;52.956;4.772;2023-02-16T07:51:30;102323.06;;;9.06;100.00
55490;BME280;44029;52.956;4.772;2023-02-16T07:53:56;102315.34;;;9.23;100.00
55490;BME280;44029;52.956;4.772;2023-02-16T07:56:27;102320.66;;;9.32;100.00
55490;BME280;44029;52.956;4.772;2023-02-16T07:58:54;102313.03;;;9.20;100.00
55490;BME280;44029;52.956;4.772;2023-02-16T08:01:20;102319.00;;;8.96;100.00
55490;BME280;44029;52.956;4.772;2023-02-16T08:03:46;102316.72;;;8.93;100.00
55490;BME280;44029;52.956;4.772;2023-02-16T08:06:11;102309.53;;;8.92;100.00
55490;BME280;44029;52.956;4.772;2023-02-16T08:08:37;102308.31;;;9.01;100.00
55490;BME280;44029;52.956;4.772;2023-02-16T08:11:14;102316.81;;;9.19;100.00
55490;BME280;44029;52.956;4.772;2023-02-16T08:13:40;102317.78;;;8.98;100.00
55490;BME280;44029;52.956;4.772;2023-02-16T08:16:17;102316.56;;;9.14;100.00
55490;BME280;44029;52.956;4.772;2023-02-16T08:18:43;102320.25;;;9.35;100.00
55490;BME280;44029;52.956;4.772;2023-02-16T08:21:11;102318.31;;;9.28;100.00
55490;BME280;44029;52.956;4.772;2023-02-16T08:23:41;102317.06;;;9.31;100.00
55490;BME280;44029;52.956;4.772;2023-02-16T08:26:09;102327.78;;;9.33;100.00
55490;BME280;44029;52.956;4.772;2023-02-16T08:28:35;102321.88;;;9.22;100.00
55490;BME280;44029;52.956;4.772;2023-02-16T08:31:04;102322.13;;;9.27;100.00
55490;BME280;44029;52.956;4.772;2023-02-16T08:33:30;102321.25;;;9.27;100.00
55490;BME280;44029;52.956;4.772;2023-02-16T08:35:57;102323.81;;;9.35;100.00
55490;BME280;44029;52.956;4.772;2023-02-16T08:38:23;102320.44;;;9.40;100.00
55490;BME280;44029;52.956;4.772;2023-02-16T08:40:49;102317.50;;;9.41;100.00
55490;BME280;44029;52.956;4.772;2023-02-16T08:43:14;102309.94;;;9.37;100.00
55490;BME280;44029;52.956;4.772;2023-02-16T08:45:45;102313.75;;;9.49;100.00
55490;BME280;44029;52.956;4.772;2023-02-16T08:48:12;102303.63;;;9.43;100.00
55490;BME280;44029;52.956;4.772;2023-02-16T08:50:42;102301.75;;;9.50;100.00
55490;BME280;44029;52.956;4.772;2023-02-16T08:53:11;102303.03;;;9.54;100.00
55490;BME280;44029;52.956;4.772;2023-02-16T08:55:37;102305.16;;;9.72;100.00
55490;BME280;44029;52.956;4.772;2023-02-16T08:58:03;102289.78;;;9.71;100.00
55490;BME280;44029;52.956;4.772;2023-02-16T09:00:28;102295.25;;;9.58;100.00
55490;BME280;44029;52.956;4.772;2023-02-16T09:03:00;102285.13;;;9.58;100.00
55490;BME280;44029;52.956;4.772;2023-02-16T09:05:26;102282.19;;;9.46;100.00
55490;BME280;44029;52.956;4.772;2023-02-16T09:07:55;102289.75;;;9.51;100.00
55490;BME280;44029;52.956;4.772;2023-02-16T09:10:21;102293.53;;;9.43;100.00
55490;BME280;44029;52.956;4.772;2023-02-16T09:12:48;102298.38;;;9.48;100.00
55490;BME280;44029;52.956;4.772;2023-02-16T09:15:14;102294.63;;;9.56;100.00
55490;BME280;44029;52.956;4.772;2023-02-16T09:17:40;102299.66;;;9.65;100.00
55490;BME280;44029;52.956;4.772;2023-02-16T09:20:07;102310.44;;;9.80;100.00
55490;BME280;44029;52.956;4.772;2023-02-16T09:22:32;102309.19;;;9.83;100.00
55490;BME280;44029;52.956;4.772;2023-02-16T09:24:58;102310.19;;;9.75;100.00
55490;BME280;44029;52.956;4.772;2023-02-16T09:27:23;102309.63;;;9.86;100.00
55490;BME280;44029;52.956;4.772;2023-02-16T09:29:50;102311.06;;;9.82;100.00
55490;BME280;44029;52.956;4.772;2023-02-16T09:32:15;102307.06;;;9.92;100.00
55490;BME280;44029;52.956;4.772;2023-02-16T09:34:41;102310.03;;;9.83;100.00
55490;BME280;44029;52.956;4.772;2023-02-16T09:37:09;102305.81;;;9.81;100.00
55490;BME280;44029;52.956;4.772;2023-02-16T09:39:35;102299.91;;;9.91;100.00
55490;BME280;44029;52.956;4.772;2023-02-16T09:42:05;102301.63;;;10.05;100.00
55490;BME280;44029;52.956;4.772;2023-02-16T09:47:08;102295.69;;;10.28;100.00
55490;BME280;44029;52.956;4.772;2023-02-16T09:49:39;102298.22;;;10.23;100.00
55490;BME280;44029;52.956;4.772;2023-02-16T09:52:27;102298.84;;;10.25;100.00
55490;BME280;44029;52.956;4.772;2023-02-16T09:54:57;102303.53;;;10.31;100.00
55490;BME280;44029;52.956;4.772;2023-02-16T09:57:45;102301.78;;;10.30;100.00
55490;BME280;44029;52.956;4.772;2023-02-16T10:08:33;102301.97;;;10.69;100.00
55490;BME280;44029;52.956;4.772;2023-02-16T10:11:43;102302.38;;;10.66;100.00
55490;BME280;44029;52.956;4.772;2023-02-16T10:14:32;102302.44;;;10.52;100.00
55490;BME280;44029;52.956;4.772;2023-02-16T10:20:01;102288.16;;;10.95;100.00
55490;BME280;44029;52.956;4.772;2023-02-16T10:25:47;102274.44;;;10.95;100.00
55490;BME280;44029;52.956;4.772;2023-02-16T10:28:21;102274.50;;;10.89;100.00
55490;BME280;44029;52.956;4.772;2023-02-16T10:30:59;102274.81;;;11.12;100.00
55490;BME280;44029;52.956;4.772;2023-02-16T10:35:59;102270.69;;;11.35;100.00
55490;BME280;44029;52.956;4.772;2023-02-16T10:38:46;102252.59;;;11.20;100.00
55490;BME280;44029;52.956;4.772;2023-02-16T10:41:26;102255.31;;;11.27;100.00
55490;BME280;44029;52.956;4.772;2023-02-16T10:44:00;102272.69;;;11.14;100.00
55490;BME280;44029;52.956;4.772;2023-02-16T10:46:30;102278.91;;;11.35;100.00
55490;BME280;44029;52.956;4.772;2023-02-16T10:48:58;102268.59;;;11.30;100.00
55490;BME280;44029;52.956;4.772;2023-02-16T10:51:32;102269.47;;;11.24;100.00
55490;BME280;44029;52.956;4.772;2023-02-16T10:54:06;102260.09;;;11.38;100.00
55490;BME280;44029;52.956;4.772;2023-02-16T10:56:48;102258.41;;;11.37;100.00
55490;BME280;44029;52.956;4.772;2023-02-16T10:59:23;102261.84;;;11.26;100.00
55490;BME280;44029;52.956;4.772;2023-02-16T11:01:52;102248.03;;;11.46;100.00
55490;BME280;44029;52.956;4.772;2023-02-16T11:04:40;102248.69;;;11.73;100.00
55490;BME280;44029;52.956;4.772;2023-02-16T11:07:15;102236.91;;;11.91;100.00
55490;BME280;44029;52.956;4.772;2023-02-16T11:09:42;102222.84;;;11.81;100.00
55490;BME280;44029;52.956;4.772;2023-02-16T11:14:46;102217.03;;;11.96;100.00
55490;BME280;44029;52.956;4.772;2023-02-16T11:17:14;102206.72;;;11.91;100.00
55490;BME280;44029;52.956;4.772;2023-02-16T11:19:49;102204.38;;;12.13;100.00
55490;BME280;44029;52.956;4.772;2023-02-16T11:24:54;102196.22;;;12.07;100.00
55490;BME280;44029;52.956;4.772;2023-02-16T11:27:22;102189.66;;;12.26;100.00
55490;BME280;44029;52.956;4.772;2023-02-16T11:29:47;102192.13;;;12.16;100.00
55490;BME280;44029;52.956;4.772;2023-02-16T11:32:16;102188.22;;;12.24;100.00
55490;BME280;44029;52.956;4.772;2023-02-16T11:34:48;102183.50;;;12.31;100.00
55490;BME280;44029;52.956;4.772;2023-02-16T11:37:29;102180.75;;;12.31;100.00
55490;BME280;44029;52.956;4.772;2023-02-16T11:42:34;102175.25;;;12.49;100.00
55490;BME280;44029;52.956;4.772;2023-02-16T11:45:02;102171.13;;;12.40;100.00
55490;BME280;44029;52.956;4.772;2023-02-16T11:47:31;102160.59;;;12.37;100.00
55490;BME280;44029;52.956;4.772;2023-02-16T11:52:43;102149.75;;;12.42;100.00
55490;BME280;44029;52.956;4.772;2023-02-16T11:57:45;102145.09;;;12.43;100.00
55490;BME280;44029;52.956;4.772;2023-02-16T12:00:20;102146.06;;;12.48;100.00
55490;BME280;44029;52.956;4.772;2023-02-16T12:05:57;102150.44;;;12.19;100.00
55490;BME280;44029;52.956;4.772;2023-02-16T12:11:21;102160.97;;;12.04;100.00
55490;BME280;44029;52.956;4.772;2023-02-16T12:16:56;102162.09;;;11.71;100.00
55490;BME280;44029;52.956;4.772;2023-02-16T12:19:43;102147.19;;;11.60;100.00
55490;BME280;44029;52.956;4.772;2023-02-16T12:22:31;102151.47;;;11.56;100.00
55490;BME280;44029;52.956;4.772;2023-02-16T12:38:50;102151.75;;;11.16;100.00
55490;BME280;44029;52.956;4.772;2023-02-16T12:41:28;102143.38;;;11.11;100.00
55490;BME280;44029;52.956;4.772;2023-02-16T12:44:01;102142.81;;;11.02;100.00
55490;BME280;44029;52.956;4.772;2023-02-16T12:46:38;102130.03;;;10.89;100.00
55490;BME280;44029;52.956;4.772;2023-02-16T12:49:17;102124.34;;;11.16;100.00
55490;BME280;44029;52.956;4.772;2023-02-16T12:51:51;102128.31;;;10.88;100.00
55490;BME280;44029;52.956;4.772;2023-02-16T12:54:23;102120.72;;;11.22;100.00
55490;BME280;44029;52.956;4.772;2023-02-16T12:56:56;102113.38;;;11.41;100.00
55490;BME280;44029;52.956;4.772;2023-02-16T12:59:29;102103.31;;;11.35;100.00
55490;BME280;44029;52.956;4.772;2023-02-16T13:01:58;102091.94;;;11.31;100.00
55490;BME280;44029;52.956;4.772;2023-02-16T13:04:36;102092.00;;;11.50;100.00
55490;BME280;44029;52.956;4.772;2023-02-16T13:07:25;102088.50;;;11.61;100.00
55490;BME280;44029;52.956;4.772;2023-02-16T13:10:35;102080.84;;;11.45;100.00
55490;BME280;44029;52.956;4.772;2023-02-16T13:13:08;102076.31;;;11.57;100.00
55490;BME280;44029;52.956;4.772;2023-02-16T13:15:48;102069.59;;;11.71;100.00
55490;BME280;44029;52.956;4.772;2023-02-16T13:18:21;102058.47;;;11.66;100.00
55490;BME280;44029;52.956;4.772;2023-02-16T13:20:53;102063.44;;;11.76;100.00
55490;BME280;44029;52.956;4.772;2023-02-16T13:23:45;102050.38;;;11.71;100.00
55490;BME280;44029;52.956;4.772;2023-02-16T13:46:14;102051.16;;;11.16;100.00
55490;BME280;44029;52.956;4.772;2023-02-16T13:48:47;102045.31;;;11.06;100.00
55490;BME280;44029;52.956;4.772;2023-02-16T13:51:19;102051.69;;;11.00;100.00
55490;BME280;44029;52.956;4.772;2023-02-16T13:53:57;102056.03;;;10.82;100.00
55490;BME280;44029;52.956;4.772;2023-02-16T13:58:50;102052.47;;;10.50;100.00
55490;BME280;44029;52.956;4.772;2023-02-16T14:04:00;102055.00;;;10.52;100.00
55490;BME280;44029;52.956;4.772;2023-02-16T14:14:37;102058.22;;;10.42;100.00
55490;BME280;44029;52.956;4.772;2023-02-16T14:19:57;102058.13;;;10.55;100.00
55490;BME280;44029;52.956;4.772;2023-02-16T14:30:28;102056.34;;;10.36;100.00
55490;BME280;44029;52.956;4.772;2023-02-16T14:33:00;102071.78;;;10.17;100.00
55490;BME280;44029;52.956;4.772;2023-02-16T14:35:33;102061.19;;;10.27;100.00
55490;BME280;44029;52.956;4.772;2023-02-16T14:38:04;102062.06;;;10.28;100.00
55490;BME280;44029;52.956;4.772;2023-02-16T14:41:35;102054.06;;;10.19;100.00
55490;BME280;44029;52.956;4.772;2023-02-16T14:43:47;102063.47;;;10.43;100.00
55490;BME280;44029;52.956;4.772;2023-02-16T14:57:21;102055.66;;;9.95;100.00
55490;BME280;44029;52.956;4.772;2023-02-16T14:59:55;102056.47;;;10.02;100.00
55490;BME280;44029;52.956;4.772;2023-02-16T15:04:54;102059.09;;;9.71;100.00
55490;BME280;44029;52.956;4.772;2023-02-16T15:07:21;102052.78;;;9.70;100.00
55490;BME280;44029;52.956;4.772;2023-02-16T15:09:53;102061.38;;;9.87;100.00
55490;BME280;44029;52.956;4.772;2023-02-16T15:12:23;102049.84;;;9.72;100.00
55490;BME280;44029;52.956;4.772;2023-02-16T15:14:56;102058.00;;;9.85;100.00
55490;BME280;44029;52.956;4.772;2023-02-16T15:17:47;102057.53;;;9.95;100.00
55490;BME280;44029;52.956;4.772;2023-02-16T15:20:22;102060.09;;;9.90;100.00
55490;BME280;44029;52.956;4.772;2023-02-16T15:22:50;102053.63;;;9.64;100.00
55490;BME280;44029;52.956;4.772;2023-02-16T15:25:30;102050.44;;;9.80;100.00
55490;BME280;44029;52.956;4.772;2023-02-16T15:28:02;102049.44;;;9.68;100.00
55490;BME280;44029;52.956;4.772;2023-02-16T15:30:33;102040.97;;;9.76;100.00
55490;BME280;44029;52.956;4.772;2023-02-16T15:33:05;102045.41;;;9.77;100.00
55490;BME280;44029;52.956;4.772;2023-02-16T15:35:41;102047.91;;;9.85;100.00